Aeroporto :
LOGIN :

Iscrizione | Disclaimer

   EN    FR    IT 

 










Sommario :    VFR   VFR Marginale   IFR   IFR Intensivo   IFR Molto Intensivo
Visibilità : 
Base nubi : 
>= 8 km
>= 3000ft
5 / 8 km
1000 / 3000 ft
1500m / 5 km
500 / 1000 ft
800 / 1500m
200 / 500 ft
< 800m
< 200 ft
Simboli :   Temporali  Nebbia  Neve Forte  Precipitazioni Forti  Vento > 20 kt
SIGMETs :   Varie  Temporali  Ghiacco  Turbolenza  Onda orograficha  Ceneri Vulcaniche






- Altitudine del aeroporto : 1906 ft
- Codice IATA : INN


LOWI - Innsbruck

ULTIMO METAR :
  • 210020Z AUTO VRB02KT 9999 NSC M01/M03 Q1020

METARs OBSOLETI :
  • 202350Z AUTO 28004KT 250V310 9999 NSC M01/M04 Q1020
  • 202320Z AUTO VRB02KT 9999 NSC M00/M03 Q1020
  • 202250Z AUTO 26004KT 210V290 9999 NSC M01/M03 Q1020
  • 202220Z AUTO 26005KT 220V280 9999 NSC M00/M03 Q1020

TAF TAF LOWI
Valido dal 21 a 00 ore il 22 a 00 ore UTC


202315Z 2100/2124 27005KT CAVOK TX08/2114Z TNM01/2100Z
BECMG 2101/2103 27010KT 9999 SCT040 BKN080
TEMPO 2103/2107 27015G30KT 3000 SHSN BKN020
BECMG 2107/2109 FEW040 SCT080
BECMG 2112/2114 27005KT CAVOK
TEMPO 2118/2124 08004KT 9999 BKN100



MetMap, La meteo Aeronautica in un colpo d'occhio ! - Copyright ORBIFLY Dicembre 2007 - Disclaimer

ORBIFLY MET'MAP TEAM :

Programmazione e sviluppo : Alexandra Zaïnal
Concezione : Baudouin d'Aumeries
Aiuto per la programmazione : Marc-Olivier Méhu
Supporto tecnico e logistico : Manuel Goepfert
Aiuto per la traduzione : Arnaldo La Scala

Contatto : metmap@orbifly.com




FONTI E CREDITI :

   NOAA